sensor_id;sensor_type;location;lat;lon;timestamp;pressure;altitude;pressure_sealevel;temperature;humidity
9923;BME280;5000;50.546;9.720;2024-02-04T00:02:23;98830.22;;;16.21;63.10
9923;BME280;5000;50.546;9.720;2024-02-04T00:07:17;98825.94;;;16.19;63.24
9923;BME280;5000;50.546;9.720;2024-02-04T00:12:11;98814.50;;;16.17;63.17
9923;BME280;5000;50.546;9.720;2024-02-04T00:17:05;98816.41;;;16.15;62.74
9923;BME280;5000;50.546;9.720;2024-02-04T00:21:58;98811.16;;;16.13;62.72
9923;BME280;5000;50.546;9.720;2024-02-04T00:26:51;98814.78;;;16.12;62.83
9923;BME280;5000;50.546;9.720;2024-02-04T00:31:45;98815.00;;;16.09;62.84
9923;BME280;5000;50.546;9.720;2024-02-04T00:36:39;98822.25;;;16.07;63.04
9923;BME280;5000;50.546;9.720;2024-02-04T00:41:32;98807.31;;;16.04;62.91
9923;BME280;5000;50.546;9.720;2024-02-04T00:46:25;98805.59;;;16.03;62.80
9923;BME280;5000;50.546;9.720;2024-02-04T00:51:18;98811.94;;;16.01;62.92
9923;BME280;5000;50.546;9.720;2024-02-04T00:56:13;98800.44;;;16.00;62.75
9923;BME280;5000;50.546;9.720;2024-02-04T01:01:07;98787.19;;;15.99;62.55
9923;BME280;5000;50.546;9.720;2024-02-04T01:06:01;98787.38;;;15.96;62.58
9923;BME280;5000;50.546;9.720;2024-02-04T01:10:54;98795.50;;;15.94;62.72
9923;BME280;5000;50.546;9.720;2024-02-04T01:15:49;98792.91;;;15.92;62.57
9923;BME280;5000;50.546;9.720;2024-02-04T01:20:42;98793.84;;;15.91;62.65
9923;BME280;5000;50.546;9.720;2024-02-04T01:25:35;98800.19;;;15.90;62.59
9923;BME280;5000;50.546;9.720;2024-02-04T01:30:33;98803.78;;;15.89;62.70
9923;BME280;5000;50.546;9.720;2024-02-04T01:35:27;98789.69;;;15.87;62.71
9923;BME280;5000;50.546;9.720;2024-02-04T01:40:20;98779.00;;;15.87;62.30
9923;BME280;5000;50.546;9.720;2024-02-04T01:45:14;98785.31;;;15.86;62.26
9923;BME280;5000;50.546;9.720;2024-02-04T01:50:07;98778.34;;;15.84;62.43
9923;BME280;5000;50.546;9.720;2024-02-04T01:55:02;98772.13;;;15.83;62.23
9923;BME280;5000;50.546;9.720;2024-02-04T01:59:56;98773.94;;;15.83;62.27
9923;BME280;5000;50.546;9.720;2024-02-04T02:04:49;98779.38;;;15.81;62.19
9923;BME280;5000;50.546;9.720;2024-02-04T02:09:43;98768.78;;;15.80;62.22
9923;BME280;5000;50.546;9.720;2024-02-04T02:14:39;98772.41;;;15.78;62.35
9923;BME280;5000;50.546;9.720;2024-02-04T02:19:35;98780.41;;;15.78;62.32
9923;BME280;5000;50.546;9.720;2024-02-04T02:24:34;98767.19;;;15.77;62.07
9923;BME280;5000;50.546;9.720;2024-02-04T02:29:27;98784.06;;;15.77;62.16
9923;BME280;5000;50.546;9.720;2024-02-04T02:34:21;98782.34;;;15.76;62.20
9923;BME280;5000;50.546;9.720;2024-02-04T02:39:22;98785.09;;;15.75;62.03
9923;BME280;5000;50.546;9.720;2024-02-04T02:44:18;98772.69;;;15.74;62.10
9923;BME280;5000;50.546;9.720;2024-02-04T02:49:13;98773.56;;;15.74;61.88
9923;BME280;5000;50.546;9.720;2024-02-04T02:54:06;98757.69;;;15.73;62.03
9923;BME280;5000;50.546;9.720;2024-02-04T02:58:59;98760.34;;;15.73;61.86
9923;BME280;5000;50.546;9.720;2024-02-04T03:03:54;98754.25;;;15.71;61.82
9923;BME280;5000;50.546;9.720;2024-02-04T03:08:47;98753.28;;;15.72;61.76
9923;BME280;5000;50.546;9.720;2024-02-04T03:13:40;98749.75;;;15.71;61.91
9923;BME280;5000;50.546;9.720;2024-02-04T03:18:33;98745.38;;;15.70;62.00
9923;BME280;5000;50.546;9.720;2024-02-04T03:23:28;98756.97;;;15.69;61.83
9923;BME280;5000;50.546;9.720;2024-02-04T03:28:21;98754.31;;;15.69;61.73
9923;BME280;5000;50.546;9.720;2024-02-04T03:33:14;98748.16;;;15.69;61.92
9923;BME280;5000;50.546;9.720;2024-02-04T03:38:07;98743.75;;;15.68;61.75
9923;BME280;5000;50.546;9.720;2024-02-04T03:43:02;98740.25;;;15.67;61.45
9923;BME280;5000;50.546;9.720;2024-02-04T03:47:55;98738.44;;;15.68;61.48
9923;BME280;5000;50.546;9.720;2024-02-04T03:52:49;98728.69;;;15.67;61.43
9923;BME280;5000;50.546;9.720;2024-02-04T03:57:41;98727.88;;;15.66;61.43
9923;BME280;5000;50.546;9.720;2024-02-04T04:02:36;98728.69;;;15.67;61.58
9923;BME280;5000;50.546;9.720;2024-02-04T04:07:29;98729.66;;;15.66;61.46
9923;BME280;5000;50.546;9.720;2024-02-04T04:12:22;98719.94;;;15.65;61.46
9923;BME280;5000;50.546;9.720;2024-02-04T04:17:14;98707.59;;;15.64;61.35
9923;BME280;5000;50.546;9.720;2024-02-04T04:22:09;98717.28;;;15.65;61.28
9923;BME280;5000;50.546;9.720;2024-02-04T04:27:02;98707.59;;;15.64;61.14
9923;BME280;5000;50.546;9.720;2024-02-04T04:31:55;98721.00;;;15.62;61.59
9923;BME280;5000;50.546;9.720;2024-02-04T04:36:48;98720.03;;;15.63;61.52
9923;BME280;5000;50.546;9.720;2024-02-04T04:41:43;98721.88;;;15.63;61.16
9923;BME280;5000;50.546;9.720;2024-02-04T04:46:37;98720.03;;;15.63;61.35
9923;BME280;5000;50.546;9.720;2024-02-04T04:51:30;98721.00;;;15.62;61.35
9923;BME280;5000;50.546;9.720;2024-02-04T04:56:23;98707.78;;;15.60;61.38
9923;BME280;5000;50.546;9.720;2024-02-04T05:01:18;98713.09;;;15.60;61.19
9923;BME280;5000;50.546;9.720;2024-02-04T05:06:11;98710.97;;;15.66;61.17
9923;BME280;5000;50.546;9.720;2024-02-04T05:11:04;98710.22;;;15.78;60.55
9923;BME280;5000;50.546;9.720;2024-02-04T05:15:57;98695.06;;;15.93;60.30
9923;BME280;5000;50.546;9.720;2024-02-04T05:20:51;98683.47;;;16.07;59.99
9923;BME280;5000;50.546;9.720;2024-02-04T05:25:44;98675.59;;;16.18;59.87
9923;BME280;5000;50.546;9.720;2024-02-04T05:30:37;98689.94;;;16.30;59.60
9923;BME280;5000;50.546;9.720;2024-02-04T05:35:30;98674.91;;;16.42;59.39
9923;BME280;5000;50.546;9.720;2024-02-04T05:40:24;98679.31;;;16.56;59.17
9923;BME280;5000;50.546;9.720;2024-02-04T05:45:17;98687.13;;;16.72;58.88
9923;BME280;5000;50.546;9.720;2024-02-04T05:50:10;98686.38;;;16.83;58.81
9923;BME280;5000;50.546;9.720;2024-02-04T05:55:04;98684.97;;;16.90;58.60
9923;BME280;5000;50.546;9.720;2024-02-04T05:59:58;98688.13;;;16.97;58.47
9923;BME280;5000;50.546;9.720;2024-02-04T06:04:52;98685.00;;;17.03;58.69
9923;BME280;5000;50.546;9.720;2024-02-04T06:09:45;98681.94;;;17.09;58.37
9923;BME280;5000;50.546;9.720;2024-02-04T06:14:38;98686.81;;;17.15;58.51
9923;BME280;5000;50.546;9.720;2024-02-04T06:19:33;98682.03;;;17.21;58.24
9923;BME280;5000;50.546;9.720;2024-02-04T06:24:26;98682.53;;;17.26;58.29
9923;BME280;5000;50.546;9.720;2024-02-04T06:29:19;98672.34;;;17.31;58.27
9923;BME280;5000;50.546;9.720;2024-02-04T06:34:12;98664.88;;;17.36;58.26
9923;BME280;5000;50.546;9.720;2024-02-04T06:39:07;98660.03;;;17.41;57.99
9923;BME280;5000;50.546;9.720;2024-02-04T06:44:00;98677.59;;;17.45;58.09
9923;BME280;5000;50.546;9.720;2024-02-04T06:48:53;98672.88;;;17.49;58.14
9923;BME280;5000;50.546;9.720;2024-02-04T06:53:47;98662.78;;;17.53;57.91
9923;BME280;5000;50.546;9.720;2024-02-04T06:58:42;98681.19;;;17.57;58.01
9923;BME280;5000;50.546;9.720;2024-02-04T07:03:35;98668.69;;;17.58;57.92
9923;BME280;5000;50.546;9.720;2024-02-04T07:08:29;98674.75;;;17.60;57.87
9923;BME280;5000;50.546;9.720;2024-02-04T07:13:22;98680.97;;;17.60;57.84
9923;BME280;5000;50.546;9.720;2024-02-04T07:18:16;98683.66;;;17.60;57.84
9923;BME280;5000;50.546;9.720;2024-02-04T07:23:13;98690.81;;;17.60;58.10
9923;BME280;5000;50.546;9.720;2024-02-04T07:28:06;98688.88;;;17.62;57.94
9923;BME280;5000;50.546;9.720;2024-02-04T07:32:59;98677.72;;;17.68;58.05
9923;BME280;5000;50.546;9.720;2024-02-04T07:37:53;98665.38;;;17.78;57.69
9923;BME280;5000;50.546;9.720;2024-02-04T07:42:46;98669.34;;;17.86;57.56
9923;BME280;5000;50.546;9.720;2024-02-04T07:47:39;98649.16;;;17.93;57.54
9923;BME280;5000;50.546;9.720;2024-02-04T07:52:33;98657.72;;;17.98;57.69
9923;BME280;5000;50.546;9.720;2024-02-04T07:57:27;98660.06;;;18.03;57.33
9923;BME280;5000;50.546;9.720;2024-02-04T08:02:20;98667.75;;;18.07;57.37
9923;BME280;5000;50.546;9.720;2024-02-04T08:07:13;98684.69;;;18.08;57.64
9923;BME280;5000;50.546;9.720;2024-02-04T08:12:09;98672.47;;;18.04;57.70
9923;BME280;5000;50.546;9.720;2024-02-04T08:17:03;98674.53;;;18.00;57.51
9923;BME280;5000;50.546;9.720;2024-02-04T08:21:56;98664.78;;;17.99;57.77
9923;BME280;5000;50.546;9.720;2024-02-04T08:26:50;98647.91;;;17.99;57.63
9923;BME280;5000;50.546;9.720;2024-02-04T08:31:43;98649.59;;;18.00;57.96
9923;BME280;5000;50.546;9.720;2024-02-04T08:36:37;98670.78;;;18.03;57.58
9923;BME280;5000;50.546;9.720;2024-02-04T08:41:31;98675.91;;;18.06;57.84
9923;BME280;5000;50.546;9.720;2024-02-04T08:46:24;98674.81;;;18.08;57.60
9923;BME280;5000;50.546;9.720;2024-02-04T08:51:17;98681.66;;;18.13;57.45
9923;BME280;5000;50.546;9.720;2024-02-04T08:56:12;98663.63;;;18.15;57.80
9923;BME280;5000;50.546;9.720;2024-02-04T09:01:05;98651.97;;;18.16;57.80
9923;BME280;5000;50.546;9.720;2024-02-04T09:05:58;98648.31;;;18.17;57.72
9923;BME280;5000;50.546;9.720;2024-02-04T09:10:51;98659.78;;;18.19;57.57
9923;BME280;5000;50.546;9.720;2024-02-04T09:15:46;98654.53;;;18.17;57.53
9923;BME280;5000;50.546;9.720;2024-02-04T09:20:39;98643.94;;;18.16;57.75
9923;BME280;5000;50.546;9.720;2024-02-04T09:25:32;98641.38;;;18.14;57.70
9923;BME280;5000;50.546;9.720;2024-02-04T09:30:26;98634.31;;;18.13;57.93
9923;BME280;5000;50.546;9.720;2024-02-04T09:35:20;98638.56;;;18.16;58.02
9923;BME280;5000;50.546;9.720;2024-02-04T09:40:13;98625.09;;;18.17;57.65
9923;BME280;5000;50.546;9.720;2024-02-04T09:45:07;98619.47;;;18.20;57.67
9923;BME280;5000;50.546;9.720;2024-02-04T09:50:01;98619.25;;;18.23;57.69
9923;BME280;5000;50.546;9.720;2024-02-04T09:54:57;98616.44;;;18.25;57.48
9923;BME280;5000;50.546;9.720;2024-02-04T09:59:51;98624.13;;;18.30;57.41
9923;BME280;5000;50.546;9.720;2024-02-04T10:04:44;98623.06;;;18.32;57.43
9923;BME280;5000;50.546;9.720;2024-02-04T10:09:37;98615.75;;;18.34;57.60
9923;BME280;5000;50.546;9.720;2024-02-04T10:14:32;98609.44;;;18.35;57.64
9923;BME280;5000;50.546;9.720;2024-02-04T10:19:25;98612.97;;;18.36;57.40
9923;BME280;5000;50.546;9.720;2024-02-04T10:24:18;98613.81;;;18.36;57.54
9923;BME280;5000;50.546;9.720;2024-02-04T10:29:14;98633.53;;;18.35;57.54
9923;BME280;5000;50.546;9.720;2024-02-04T10:34:09;98622.06;;;18.33;57.57
9923;BME280;5000;50.546;9.720;2024-02-04T10:39:03;98607.84;;;18.33;57.79
9923;BME280;5000;50.546;9.720;2024-02-04T10:43:56;98594.44;;;18.33;57.81
9923;BME280;5000;50.546;9.720;2024-02-04T10:48:51;98595.94;;;18.37;57.78
9923;BME280;5000;50.546;9.720;2024-02-04T10:53:46;98594.94;;;18.38;57.46
9923;BME280;5000;50.546;9.720;2024-02-04T10:58:39;98582.28;;;18.40;57.44
9923;BME280;5000;50.546;9.720;2024-02-04T11:03:33;98578.41;;;18.44;57.66
9923;BME280;5000;50.546;9.720;2024-02-04T11:08:27;98577.31;;;18.47;57.50
9923;BME280;5000;50.546;9.720;2024-02-04T11:13:22;98570.84;;;18.49;57.40
9923;BME280;5000;50.546;9.720;2024-02-04T11:18:24;98577.78;;;18.52;57.40
9923;BME280;5000;50.546;9.720;2024-02-04T11:23:25;98582.31;;;18.51;57.67
9923;BME280;5000;50.546;9.720;2024-02-04T11:28:25;98581.47;;;18.51;57.60
9923;BME280;5000;50.546;9.720;2024-02-04T11:33:19;98575.13;;;18.52;57.68
9923;BME280;5000;50.546;9.720;2024-02-04T11:38:16;98560.88;;;18.51;57.48
9923;BME280;5000;50.546;9.720;2024-02-04T11:43:10;98552.22;;;18.48;57.72
9923;BME280;5000;50.546;9.720;2024-02-04T11:48:06;98529.09;;;18.47;57.57
9923;BME280;5000;50.546;9.720;2024-02-04T11:53:04;98536.16;;;18.48;57.60
9923;BME280;5000;50.546;9.720;2024-02-04T11:57:58;98539.56;;;18.50;57.73
9923;BME280;5000;50.546;9.720;2024-02-04T12:02:59;98542.72;;;18.55;57.59
9923;BME280;5000;50.546;9.720;2024-02-04T12:07:54;98546.16;;;18.57;57.43
9923;BME280;5000;50.546;9.720;2024-02-04T12:12:47;98529.84;;;18.60;57.69
9923;BME280;5000;50.546;9.720;2024-02-04T12:17:40;98519.72;;;18.64;57.40
9923;BME280;5000;50.546;9.720;2024-02-04T12:22:33;98507.16;;;18.64;57.44
9923;BME280;5000;50.546;9.720;2024-02-04T12:27:27;98507.78;;;18.68;57.42
9923;BME280;5000;50.546;9.720;2024-02-04T12:32:20;98509.63;;;18.67;57.31
9923;BME280;5000;50.546;9.720;2024-02-04T12:37:14;98508.75;;;18.67;57.48
9923;BME280;5000;50.546;9.720;2024-02-04T12:42:07;98514.09;;;18.67;57.55
9923;BME280;5000;50.546;9.720;2024-02-04T12:47:02;98507.78;;;18.68;57.49
9923;BME280;5000;50.546;9.720;2024-02-04T12:52:03;98498.03;;;18.67;57.59
9923;BME280;5000;50.546;9.720;2024-02-04T12:56:56;98500.00;;;18.65;57.41
9923;BME280;5000;50.546;9.720;2024-02-04T13:01:54;98504.63;;;18.63;57.71
9923;BME280;5000;50.546;9.720;2024-02-04T13:06:49;98500.00;;;18.65;57.76
9923;BME280;5000;50.546;9.720;2024-02-04T13:11:43;98493.53;;;18.67;57.59
9923;BME280;5000;50.546;9.720;2024-02-04T13:16:37;98501.31;;;18.70;57.58
9923;BME280;5000;50.546;9.720;2024-02-04T13:21:30;98511.78;;;18.73;57.52
9923;BME280;5000;50.546;9.720;2024-02-04T13:26:25;98521.31;;;18.78;57.39
9923;BME280;5000;50.546;9.720;2024-02-04T13:31:18;98524.69;;;18.80;57.20
9923;BME280;5000;50.546;9.720;2024-02-04T13:36:11;98509.63;;;18.79;57.58
9923;BME280;5000;50.546;9.720;2024-02-04T13:41:04;98500.56;;;18.80;57.58
9923;BME280;5000;50.546;9.720;2024-02-04T13:46:00;98493.53;;;18.79;57.44
9923;BME280;5000;50.546;9.720;2024-02-04T13:50:54;98481.81;;;18.80;57.58
9923;BME280;5000;50.546;9.720;2024-02-04T13:55:47;98481.81;;;18.80;57.34
9923;BME280;5000;50.546;9.720;2024-02-04T14:00:41;98465.03;;;18.78;57.52
9923;BME280;5000;50.546;9.720;2024-02-04T14:05:36;98469.53;;;18.77;57.58
9923;BME280;5000;50.546;9.720;2024-02-04T14:10:29;98461.75;;;18.74;57.62
9923;BME280;5000;50.546;9.720;2024-02-04T14:15:22;98460.88;;;18.73;57.38
9923;BME280;5000;50.546;9.720;2024-02-04T14:20:15;98453.56;;;18.76;57.46
9923;BME280;5000;50.546;9.720;2024-02-04T14:25:10;98451.63;;;18.78;57.42
9923;BME280;5000;50.546;9.720;2024-02-04T14:30:04;98474.50;;;18.82;57.60
9923;BME280;5000;50.546;9.720;2024-02-04T14:34:58;98477.91;;;18.84;57.41
9923;BME280;5000;50.546;9.720;2024-02-04T14:39:51;98480.22;;;18.88;57.30
9923;BME280;5000;50.546;9.720;2024-02-04T14:44:45;98497.88;;;18.91;57.26
9923;BME280;5000;50.546;9.720;2024-02-04T14:49:39;98494.38;;;18.91;57.17
9923;BME280;5000;50.546;9.720;2024-02-04T14:54:32;98495.19;;;18.91;57.40
9923;BME280;5000;50.546;9.720;2024-02-04T14:59:25;98489.84;;;18.91;57.56
9923;BME280;5000;50.546;9.720;2024-02-04T15:04:19;98471.94;;;18.92;57.45
9923;BME280;5000;50.546;9.720;2024-02-04T15:09:12;98465.72;;;18.91;57.33
9923;BME280;5000;50.546;9.720;2024-02-04T15:14:07;98457.94;;;18.88;57.28
9923;BME280;5000;50.546;9.720;2024-02-04T15:19:00;98452.81;;;18.85;57.43
9923;BME280;5000;50.546;9.720;2024-02-04T15:23:56;98471.59;;;18.85;57.53
9923;BME280;5000;50.546;9.720;2024-02-04T15:28:55;98475.00;;;18.87;57.46
9923;BME280;5000;50.546;9.720;2024-02-04T15:33:50;98473.91;;;18.89;57.32
9923;BME280;5000;50.546;9.720;2024-02-04T15:38:43;98484.03;;;18.63;59.61
9923;BME280;5000;50.546;9.720;2024-02-04T15:43:37;98482.41;;;18.04;62.34
9923;BME280;5000;50.546;9.720;2024-02-04T15:48:31;98486.09;;;17.43;64.95
9923;BME280;5000;50.546;9.720;2024-02-04T15:53:26;98469.81;;;17.22;65.36
9923;BME280;5000;50.546;9.720;2024-02-04T15:58:19;98468.53;;;16.90;66.97
9923;BME280;5000;50.546;9.720;2024-02-04T16:03:15;98450.78;;;16.65;68.07
9923;BME280;5000;50.546;9.720;2024-02-04T16:08:09;98482.09;;;16.50;68.40
9923;BME280;5000;50.546;9.720;2024-02-04T16:13:03;98453.03;;;16.58;67.77
9923;BME280;5000;50.546;9.720;2024-02-04T16:18:01;98450.25;;;16.97;66.34
9923;BME280;5000;50.546;9.720;2024-02-04T16:22:56;98464.25;;;17.00;66.10
9923;BME280;5000;50.546;9.720;2024-02-04T16:27:49;98472.78;;;17.06;66.14
9923;BME280;5000;50.546;9.720;2024-02-04T16:32:42;98469.03;;;17.08;65.58
9923;BME280;5000;50.546;9.720;2024-02-04T16:37:35;98481.44;;;17.09;65.47
9923;BME280;5000;50.546;9.720;2024-02-04T16:42:30;98464.44;;;17.10;65.32
9923;BME280;5000;50.546;9.720;2024-02-04T16:47:26;98466.38;;;17.08;65.27
9923;BME280;5000;50.546;9.720;2024-02-04T16:52:20;98467.44;;;17.06;65.17
9923;BME280;5000;50.546;9.720;2024-02-04T16:57:13;98452.59;;;16.51;67.64
9923;BME280;5000;50.546;9.720;2024-02-04T17:02:08;98464.81;;;16.17;69.45
9923;BME280;5000;50.546;9.720;2024-02-04T17:07:01;98468.97;;;16.47;68.13
9923;BME280;5000;50.546;9.720;2024-02-04T17:11:55;98445.19;;;16.68;67.42
9923;BME280;5000;50.546;9.720;2024-02-04T17:16:52;98430.19;;;16.78;67.35
9923;BME280;5000;50.546;9.720;2024-02-04T17:21:55;98438.22;;;16.78;67.25
9923;BME280;5000;50.546;9.720;2024-02-04T17:26:49;98435.31;;;16.81;67.02
9923;BME280;5000;50.546;9.720;2024-02-04T17:31:45;98434.78;;;16.76;67.38
9923;BME280;5000;50.546;9.720;2024-02-04T17:36:39;98431.50;;;16.73;67.12
9923;BME280;5000;50.546;9.720;2024-02-04T17:41:33;98446.56;;;16.74;66.91
9923;BME280;5000;50.546;9.720;2024-02-04T17:46:27;98459.16;;;16.71;66.99
9923;BME280;5000;50.546;9.720;2024-02-04T17:51:20;98444.22;;;16.69;66.71
9923;BME280;5000;50.546;9.720;2024-02-04T17:56:16;98438.13;;;16.67;66.82
9923;BME280;5000;50.546;9.720;2024-02-04T18:01:10;98452.44;;;16.66;66.75
9923;BME280;5000;50.546;9.720;2024-02-04T18:06:10;98426.06;;;16.61;66.92
9923;BME280;5000;50.546;9.720;2024-02-04T18:11:03;98432.50;;;16.59;67.38
9923;BME280;5000;50.546;9.720;2024-02-04T18:16:06;98435.91;;;16.61;66.99
9923;BME280;5000;50.546;9.720;2024-02-04T18:21:01;98453.22;;;16.55;66.84
9923;BME280;5000;50.546;9.720;2024-02-04T18:25:55;98452.41;;;16.54;66.99
9923;BME280;5000;50.546;9.720;2024-02-04T18:30:48;98440.97;;;16.52;66.96
9923;BME280;5000;50.546;9.720;2024-02-04T18:35:43;98438.28;;;16.52;66.92
9923;BME280;5000;50.546;9.720;2024-02-04T18:40:37;98435.00;;;16.49;67.00
9923;BME280;5000;50.546;9.720;2024-02-04T18:45:30;98436.69;;;16.50;67.17
9923;BME280;5000;50.546;9.720;2024-02-04T18:50:24;98443.22;;;16.46;67.33
9923;BME280;5000;50.546;9.720;2024-02-04T18:55:17;98434.25;;;16.47;67.42
9923;BME280;5000;50.546;9.720;2024-02-04T19:00:12;98411.91;;;16.48;67.61
9923;BME280;5000;50.546;9.720;2024-02-04T19:05:06;98413.34;;;16.41;67.76
9923;BME280;5000;50.546;9.720;2024-02-04T19:10:00;98412.47;;;16.40;67.68
9923;BME280;5000;50.546;9.720;2024-02-04T19:14:55;98410.75;;;16.39;67.73
9923;BME280;5000;50.546;9.720;2024-02-04T19:19:53;98406.38;;;16.38;67.71
9923;BME280;5000;50.546;9.720;2024-02-04T19:24:47;98374.31;;;16.38;67.80
9923;BME280;5000;50.546;9.720;2024-02-04T19:29:40;98394.97;;;16.36;67.50
9923;BME280;5000;50.546;9.720;2024-02-04T19:34:33;98403.94;;;16.35;67.68
9923;BME280;5000;50.546;9.720;2024-02-04T19:39:28;98408.41;;;16.34;67.50
9923;BME280;5000;50.546;9.720;2024-02-04T19:44:21;98403.63;;;16.27;67.67
9923;BME280;5000;50.546;9.720;2024-02-04T19:49:14;98402.56;;;16.29;67.84
9923;BME280;5000;50.546;9.720;2024-02-04T19:54:07;98403.72;;;16.25;67.81
9923;BME280;5000;50.546;9.720;2024-02-04T19:59:01;98391.34;;;16.24;67.92
9923;BME280;5000;50.546;9.720;2024-02-04T20:03:56;98383.44;;;16.22;67.49
9923;BME280;5000;50.546;9.720;2024-02-04T20:08:50;98380.03;;;16.20;67.75
9923;BME280;5000;50.546;9.720;2024-02-04T20:13:43;98405.00;;;16.19;67.79
9923;BME280;5000;50.546;9.720;2024-02-04T20:18:38;98398.72;;;16.20;67.79
9923;BME280;5000;50.546;9.720;2024-02-04T20:23:31;98422.03;;;16.18;67.85
9923;BME280;5000;50.546;9.720;2024-02-04T20:28:24;98422.09;;;16.17;67.83
9923;BME280;5000;50.546;9.720;2024-02-04T20:33:17;98430.03;;;16.18;67.63
9923;BME280;5000;50.546;9.720;2024-02-04T20:38:13;98429.16;;;16.18;67.43
9923;BME280;5000;50.546;9.720;2024-02-04T20:43:07;98437.28;;;16.16;67.58
9923;BME280;5000;50.546;9.720;2024-02-04T20:48:00;98439.94;;;16.16;67.57
9923;BME280;5000;50.546;9.720;2024-02-04T20:52:53;98437.94;;;16.07;67.81
9923;BME280;5000;50.546;9.720;2024-02-04T20:57:48;98443.06;;;15.44;70.91
9923;BME280;5000;50.546;9.720;2024-02-04T21:02:41;98448.97;;;15.75;70.14
9923;BME280;5000;50.546;9.720;2024-02-04T21:07:34;98444.22;;;16.06;67.70
9923;BME280;5000;50.546;9.720;2024-02-04T21:12:27;98443.44;;;16.30;66.88
9923;BME280;5000;50.546;9.720;2024-02-04T21:17:22;98443.34;;;16.44;65.97
9923;BME280;5000;50.546;9.720;2024-02-04T21:22:15;98438.16;;;16.54;65.87
9923;BME280;5000;50.546;9.720;2024-02-04T21:27:08;98434.22;;;16.60;65.58
9923;BME280;5000;50.546;9.720;2024-02-04T21:32:02;98426.72;;;16.65;65.70
9923;BME280;5000;50.546;9.720;2024-02-04T21:36:57;98426.47;;;16.68;65.91
9923;BME280;5000;50.546;9.720;2024-02-04T21:41:51;98427.75;;;16.75;66.42
9923;BME280;5000;50.546;9.720;2024-02-04T21:46:47;98414.16;;;16.78;66.24
9923;BME280;5000;50.546;9.720;2024-02-04T21:51:41;98430.06;;;16.80;66.43
9923;BME280;5000;50.546;9.720;2024-02-04T21:56:36;98422.81;;;16.82;66.12
9923;BME280;5000;50.546;9.720;2024-02-04T22:01:29;98406.69;;;16.83;66.25
9923;BME280;5000;50.546;9.720;2024-02-04T22:06:23;98391.63;;;16.82;66.46
9923;BME280;5000;50.546;9.720;2024-02-04T22:11:16;98371.94;;;16.83;66.40
9923;BME280;5000;50.546;9.720;2024-02-04T22:16:11;98371.81;;;16.85;66.49
9923;BME280;5000;50.546;9.720;2024-02-04T22:21:04;98372.56;;;16.87;66.57
9923;BME280;5000;50.546;9.720;2024-02-04T22:25:57;98373.41;;;16.88;66.34
9923;BME280;5000;50.546;9.720;2024-02-04T22:30:51;98393.81;;;16.89;66.49
9923;BME280;5000;50.546;9.720;2024-02-04T22:35:45;98399.91;;;16.91;66.33
9923;BME280;5000;50.546;9.720;2024-02-04T22:40:38;98384.84;;;16.90;66.58
9923;BME280;5000;50.546;9.720;2024-02-04T22:45:31;98384.72;;;16.91;66.47
9923;BME280;5000;50.546;9.720;2024-02-04T22:50:24;98393.59;;;16.92;66.51
9923;BME280;5000;50.546;9.720;2024-02-04T22:55:19;98398.00;;;16.93;66.72
9923;BME280;5000;50.546;9.720;2024-02-04T23:00:13;98400.66;;;16.93;66.40
9923;BME280;5000;50.546;9.720;2024-02-04T23:05:19;98390.84;;;16.93;66.61
9923;BME280;5000;50.546;9.720;2024-02-04T23:10:12;98392.56;;;16.94;66.90
9923;BME280;5000;50.546;9.720;2024-02-04T23:15:07;98397.56;;;16.99;66.78
9923;BME280;5000;50.546;9.720;2024-02-04T23:20:00;98405.56;;;16.99;66.88
9923;BME280;5000;50.546;9.720;2024-02-04T23:24:57;98402.03;;;16.98;66.79
9923;BME280;5000;50.546;9.720;2024-02-04T23:29:50;98399.34;;;16.98;66.69
9923;BME280;5000;50.546;9.720;2024-02-04T23:34:44;98403.94;;;16.72;67.92
9923;BME280;5000;50.546;9.720;2024-02-04T23:39:38;98385.47;;;16.69;68.29
9923;BME280;5000;50.546;9.720;2024-02-04T23:44:32;98387.44;;;16.78;67.25
9923;BME280;5000;50.546;9.720;2024-02-04T23:49:26;98396.97;;;16.82;66.52
9923;BME280;5000;50.546;9.720;2024-02-04T23:54:20;98393.31;;;16.83;66.30
9923;BME280;5000;50.546;9.720;2024-02-04T23:59:13;98392.47;;;16.83;66.20
